Time;durP1;ratioP1;P1;durP2;ratioP2;P2;SDS_P1;SDS_P2;PMS_P1;PMS_P2;Temp;Humidity;BMP_temperature;BMP_pressure;BME280_temperature;BME280_humidity;BME280_pressure;Samples;Min_cycle;Max_cycle;Signal;HPM_P1;HPM_P2
2021/11/07 00:02:22;;;;;;;14.30;12.85;;;10.50;99.90;;;;;;5064127;28;20055;-75
2021/11/07 00:04:56;;;;;;;12.98;11.68;;;10.60;99.90;;;;;;5065132;28;20447;-76
2021/11/07 00:07:26;;;;;;;14.43;10.30;;;10.60;99.90;;;;;;5065695;28;20036;-75
2021/11/07 00:10:03;;;;;;;14.20;10.80;;;10.60;99.90;;;;;;5058391;28;20072;-76
2021/11/07 00:12:32;;;;;;;15.75;10.00;;;10.60;99.90;;;;;;5091490;27;20052;-76
2021/11/07 00:14:58;;;;;;;14.35;9.70;;;10.70;99.90;;;;;;5065726;28;20072;-76
2021/11/07 00:17:29;;;;;;;14.73;9.75;;;10.70;99.90;;;;;;5063898;28;20128;-76
2021/11/07 00:20:11;;;;;;;20.88;9.82;;;10.70;99.90;;;;;;5062789;28;20040;-76
2021/11/07 00:22:48;;;;;;;14.25;7.85;;;10.70;99.90;;;;;;5060573;28;20174;-76
2021/11/07 00:26:04;;;;;;;12.13;8.05;;;10.70;99.90;;;;;;5065072;28;20047;-76
2021/11/07 00:28:04;;;;;;;;;;;10.80;99.90;;;;;;5059733;28;20037;-76
2021/11/07 00:30:41;;;;;;;13.88;7.40;;;10.80;99.90;;;;;;5065329;28;19963;-76
2021/11/07 00:33:25;;;;;;;12.57;7.28;;;10.80;99.90;;;;;;5062978;28;20047;-75
2021/11/07 00:38:59;;;;;;;16.75;6.88;;;10.90;99.90;;;;;;5055746;28;20521;-76
2021/11/07 00:41:27;;;;;;;10.15;5.60;;;10.90;99.90;;;;;;5058927;28;20052;-75
2021/11/07 00:44:00;;;;;;;12.10;4.82;;;10.90;99.90;;;;;;5053779;28;20056;-76
2021/11/07 00:49:07;;;;;;;11.15;4.40;;;10.90;99.90;;;;;;5089266;27;20049;-75
2021/11/07 00:56:54;;;;;;;13.30;4.10;;;11.00;99.90;;;;;;5059025;28;20550;-75
2021/11/07 01:01:52;;;;;;;11.82;2.75;;;11.00;99.90;;;;;;5087728;27;20610;-75
2021/11/07 01:04:18;;;;;;;10.75;3.22;;;11.00;99.90;;;;;;5052583;28;20036;-75
2021/11/07 01:06:44;;;;;;;15.88;3.20;;;11.00;99.90;;;;;;5056960;28;20035;-75
2021/11/07 01:09:12;;;;;;;8.07;2.72;;;11.00;99.90;;;;;;5058824;28;20032;-76
2021/11/07 01:11:38;;;;;;;16.15;3.72;;;11.00;99.90;;;;;;5073737;28;20134;-75
2021/11/07 01:14:06;;;;;;;8.20;2.47;;;11.00;99.90;;;;;;5055179;28;20609;-76
2021/11/07 01:16:33;;;;;;;12.20;3.35;;;11.10;99.90;;;;;;5059170;28;20044;-76
2021/11/07 01:19:00;;;;;;;11.32;3.70;;;11.10;99.90;;;;;;5056035;28;20072;-76
2021/11/07 01:21:29;;;;;;;13.48;4.00;;;11.10;99.90;;;;;;5056290;28;20506;-76
2021/11/07 01:26:47;;;;;;;10.75;3.63;;;11.10;99.90;;;;;;5057939;28;20047;-75
2021/11/07 01:29:30;;;;;;;11.68;3.75;;;11.10;99.90;;;;;;5055709;28;20033;-75
2021/11/07 01:31:56;;;;;;;18.40;4.00;;;11.10;99.90;;;;;;5056438;28;20080;-75
2021/11/07 01:37:20;;;;;;;17.50;5.20;;;11.20;99.90;;;;;;5033142;28;20502;-75
2021/11/07 01:42:38;;;;;;;20.23;5.05;;;11.20;99.90;;;;;;5054248;28;20096;-75
2021/11/07 01:45:22;;;;;;;19.75;4.30;;;11.30;99.90;;;;;;5058234;28;20119;-75
2021/11/07 01:47:51;;;;;;;21.58;4.35;;;11.30;99.90;;;;;;5053878;28;20052;-75
2021/11/07 01:50:17;;;;;;;23.98;4.72;;;11.20;99.90;;;;;;5042550;28;20048;-75
2021/11/07 01:52:44;;;;;;;22.35;4.88;;;11.30;99.90;;;;;;5057263;28;20398;-75
2021/11/07 01:55:16;;;;;;;20.33;5.45;;;11.20;99.90;;;;;;5054875;28;20045;-75
2021/11/07 01:57:42;;;;;;;18.40;4.32;;;11.30;99.90;;;;;;5059412;28;20079;-75
2021/11/07 02:00:22;;;;;;;24.58;5.63;;;11.20;99.90;;;;;;5056926;28;20047;-75
2021/11/07 02:02:48;;;;;;;19.35;4.78;;;11.20;99.90;;;;;;5052777;28;21370;-75
2021/11/07 02:05:14;;;;;;;24.27;4.97;;;11.20;99.90;;;;;;5056341;28;20118;-75
2021/11/07 02:07:39;;;;;;;28.80;5.63;;;11.20;99.90;;;;;;5055298;28;20479;-75
2021/11/07 02:10:10;;;;;;;30.67;7.90;;;11.20;99.90;;;;;;5056376;28;20065;-75
2021/11/07 02:12:36;;;;;;;30.20;7.93;;;11.20;99.90;;;;;;5052354;28;20075;-75
2021/11/07 02:15:10;;;;;;;28.17;6.97;;;11.20;99.90;;;;;;5055013;28;20041;-75
2021/11/07 02:17:36;;;;;;;25.27;5.53;;;11.20;99.90;;;;;;5054658;28;20045;-74
2021/11/07 02:20:08;;;;;;;22.08;6.25;;;11.20;99.90;;;;;;5056751;28;20548;-75
2021/11/07 02:22:36;;;;;;;23.45;5.97;;;11.20;99.90;;;;;;5085180;28;20131;-75
2021/11/07 02:25:03;;;;;;;28.73;5.85;;;11.20;99.90;;;;;;5058547;28;20044;-75
2021/11/07 02:27:30;;;;;;;25.23;4.90;;;11.20;99.90;;;;;;5060582;28;20080;-75
2021/11/07 02:29:56;;;;;;;18.73;4.88;;;11.20;99.90;;;;;;5066202;28;20044;-75
2021/11/07 02:32:21;;;;;;;25.33;5.97;;;11.10;99.90;;;;;;5063411;28;20115;-75
2021/11/07 02:34:48;;;;;;;22.42;4.35;;;11.10;99.90;;;;;;5065187;28;20111;-75
2021/11/07 02:37:14;;;;;;;21.67;5.38;;;11.10;99.90;;;;;;5063477;28;20098;-75
2021/11/07 02:39:40;;;;;;;23.40;5.05;;;11.10;99.90;;;;;;5064001;28;20044;-75
2021/11/07 02:42:07;;;;;;;21.40;4.72;;;11.10;99.90;;;;;;5049596;28;20182;-75
2021/11/07 02:44:36;;;;;;;23.10;4.57;;;11.10;99.90;;;;;;5065384;28;20139;-75
2021/11/07 02:47:04;;;;;;;20.05;5.20;;;11.00;99.90;;;;;;5064735;28;20047;-75
2021/11/07 02:49:30;;;;;;;25.23;5.05;;;10.90;99.90;;;;;;5068372;28;20572;-75
2021/11/07 02:51:57;;;;;;;21.55;4.70;;;10.90;99.90;;;;;;5065542;28;20056;-76
2021/11/07 02:54:24;;;;;;;23.65;5.43;;;10.80;99.90;;;;;;5066643;28;20406;-75
2021/11/07 02:56:51;;;;;;;19.42;4.00;;;10.80;99.90;;;;;;5064696;28;20052;-75
2021/11/07 02:59:23;;;;;;;28.13;5.20;;;10.70;99.90;;;;;;5068361;28;20055;-75
2021/11/07 03:01:49;;;;;;;23.17;4.80;;;10.60;99.90;;;;;;5063157;28;20040;-75
2021/11/07 03:04:15;;;;;;;21.52;4.32;;;10.50;99.90;;;;;;5062098;28;20044;-75
2021/11/07 03:06:43;;;;;;;28.25;4.63;;;10.50;99.90;;;;;;5067685;28;20037;-75
2021/11/07 03:09:17;;;;;;;31.20;5.15;;;10.40;99.90;;;;;;5064529;28;20091;-75
2021/11/07 03:11:43;;;;;;;19.70;4.25;;;10.30;99.90;;;;;;5067983;28;20098;-75
2021/11/07 03:14:14;;;;;;;23.52;5.00;;;10.30;99.90;;;;;;5065961;28;20102;-75
2021/11/07 03:16:40;;;;;;;20.77;4.32;;;10.20;99.90;;;;;;5065790;28;20087;-75
2021/11/07 03:19:06;;;;;;;28.33;4.88;;;10.20;99.90;;;;;;5062176;28;20079;-75
2021/11/07 03:21:32;;;;;;;27.17;5.68;;;10.20;99.90;;;;;;5067126;28;20167;-75
2021/11/07 03:23:58;;;;;;;32.33;5.03;;;10.10;99.90;;;;;;5062961;28;20026;-75
2021/11/07 03:26:26;;;;;;;23.08;4.10;;;10.00;99.90;;;;;;5065246;28;20028;-75
2021/11/07 03:28:57;;;;;;;29.65;4.88;;;10.00;99.90;;;;;;5096139;27;20044;-75
2021/11/07 03:31:43;;;;;;;26.80;4.55;;;10.00;99.90;;;;;;5070864;28;20102;-75
2021/11/07 03:34:16;;;;;;;24.27;4.82;;;10.00;99.90;;;;;;5061272;28;20048;-75
2021/11/07 03:36:44;;;;;;;23.45;4.43;;;9.90;99.90;;;;;;5065834;28;20036;-75
2021/11/07 03:39:11;;;;;;;28.58;4.57;;;9.90;99.90;;;;;;5064024;28;20052;-75
2021/11/07 03:41:39;;;;;;;35.13;4.90;;;9.90;99.90;;;;;;5065393;28;20037;-75
2021/11/07 03:44:05;;;;;;;30.83;5.80;;;9.90;99.90;;;;;;5059964;28;20044;-75
2021/11/07 03:46:30;;;;;;;27.48;4.05;;;9.90;99.90;;;;;;5065102;28;20056;-75
2021/11/07 03:48:57;;;;;;;26.02;4.50;;;9.90;99.90;;;;;;5067073;28;20387;-75
2021/11/07 03:51:24;;;;;;;27.85;4.93;;;9.90;99.90;;;;;;5064716;28;20040;-75
2021/11/07 03:53:50;;;;;;;22.63;4.13;;;9.90;99.90;;;;;;5064021;28;20089;-75
2021/11/07 03:56:16;;;;;;;26.85;5.38;;;9.80;99.90;;;;;;5048610;28;20048;-75
2021/11/07 03:58:42;;;;;;;20.02;4.32;;;9.80;99.90;;;;;;5080054;28;20449;-75
2021/11/07 04:01:08;;;;;;;25.70;4.57;;;9.80;99.90;;;;;;5066716;28;20659;-75
2021/11/07 04:03:35;;;;;;;23.70;4.75;;;9.70;99.90;;;;;;5063485;28;20113;-75
2021/11/07 04:06:01;;;;;;;18.95;4.13;;;9.70;99.90;;;;;;5067460;28;20040;-75
2021/11/07 04:08:27;;;;;;;22.80;4.38;;;9.70;99.90;;;;;;5064013;28;20045;-76
2021/11/07 04:10:52;;;;;;;27.60;5.65;;;9.60;99.90;;;;;;5067854;28;20047;-75
2021/11/07 04:13:19;;;;;;;26.67;5.00;;;9.60;99.90;;;;;;5094216;27;21167;-76
2021/11/07 04:15:45;;;;;;;26.77;4.63;;;9.60;99.90;;;;;;5063671;28;20049;-75
2021/11/07 04:18:11;;;;;;;23.83;4.90;;;9.60;99.90;;;;;;5064788;28;20037;-75
2021/11/07 04:20:37;;;;;;;21.40;4.70;;;9.50;99.90;;;;;;5067054;28;20044;-75
2021/11/07 04:23:03;;;;;;;18.50;3.85;;;9.50;99.90;;;;;;5064363;28;20108;-75
2021/11/07 04:25:28;;;;;;;23.38;3.70;;;9.50;99.90;;;;;;5065060;28;20047;-75
2021/11/07 04:27:54;;;;;;;28.23;4.63;;;9.50;99.90;;;;;;5065898;28;20518;-75
2021/11/07 04:30:20;;;;;;;22.92;4.75;;;9.50;99.90;;;;;;5065030;28;20045;-76
2021/11/07 04:32:46;;;;;;;23.88;5.03;;;9.50;99.90;;;;;;5060373;28;20052;-75
2021/11/07 04:35:12;;;;;;;24.08;4.07;;;9.50;99.90;;;;;;5061266;28;20048;-76
2021/11/07 04:37:40;;;;;;;26.50;4.38;;;9.50;99.90;;;;;;5062547;28;20128;-75
2021/11/07 04:40:07;;;;;;;21.45;4.13;;;9.50;99.90;;;;;;5058445;28;20044;-76
2021/11/07 04:42:33;;;;;;;23.73;3.70;;;9.60;99.90;;;;;;5059774;28;20086;-75
2021/11/07 04:44:59;;;;;;;26.25;4.07;;;9.50;99.90;;;;;;5065834;28;20067;-75
2021/11/07 04:47:25;;;;;;;17.02;3.50;;;9.50;99.90;;;;;;5062719;28;20048;-74
2021/11/07 04:49:53;;;;;;;19.52;3.65;;;9.50;99.90;;;;;;5060937;28;20040;-76
2021/11/07 04:52:20;;;;;;;26.75;5.97;;;9.50;99.90;;;;;;5064239;28;20055;-76
2021/11/07 04:54:46;;;;;;;26.23;4.13;;;9.50;99.90;;;;;;5061058;28;20521;-76
2021/11/07 04:57:12;;;;;;;21.92;4.40;;;9.40;99.90;;;;;;5064471;28;20041;-75
2021/11/07 04:59:38;;;;;;;28.48;7.00;;;9.40;99.90;;;;;;5065642;28;20036;-75
2021/11/07 05:02:04;;;;;;;27.98;4.50;;;9.40;99.90;;;;;;5063233;28;20089;-76
2021/11/07 05:04:30;;;;;;;29.30;4.70;;;9.40;99.90;;;;;;5060651;28;21284;-75
2021/11/07 05:06:56;;;;;;;23.58;4.03;;;9.40;99.90;;;;;;5064252;28;20044;-76
2021/11/07 05:09:22;;;;;;;24.60;3.95;;;9.40;99.90;;;;;;5063770;28;20033;-76
2021/11/07 05:11:48;;;;;;;22.35;3.88;;;9.40;99.90;;;;;;5060164;28;20491;-76
2021/11/07 05:14:15;;;;;;;31.60;4.20;;;9.40;99.90;;;;;;5084987;27;20071;-76
2021/11/07 05:16:41;;;;;;;19.65;3.38;;;9.40;99.90;;;;;;5057324;28;20059;-76
2021/11/07 05:19:07;;;;;;;19.77;4.15;;;9.40;99.90;;;;;;5089811;27;20484;-76
2021/11/07 05:21:32;;;;;;;23.05;4.20;;;9.40;99.90;;;;;;5056832;28;20052;-76
2021/11/07 05:23:59;;;;;;;21.48;3.95;;;9.40;99.90;;;;;;5052686;28;20045;-76
2021/11/07 05:26:25;;;;;;;29.17;4.88;;;9.30;99.90;;;;;;5055998;28;20651;-76
2021/11/07 05:28:50;;;;;;;25.13;4.78;;;9.30;99.90;;;;;;5062420;28;20047;-76
2021/11/07 05:31:16;;;;;;;26.65;4.15;;;9.30;99.90;;;;;;5056157;28;20105;-76
2021/11/07 05:33:42;;;;;;;28.25;4.22;;;9.20;99.90;;;;;;5054226;28;20506;-76
2021/11/07 05:36:08;;;;;;;24.58;4.32;;;9.20;99.90;;;;;;5085699;28;20096;-76
2021/11/07 05:38:34;;;;;;;18.40;3.67;;;9.20;99.90;;;;;;5059511;28;20044;-75
2021/11/07 05:40:59;;;;;;;21.15;4.00;;;9.10;99.90;;;;;;5056415;28;20048;-76
2021/11/07 05:43:25;;;;;;;27.85;4.25;;;9.10;99.90;;;;;;5053691;28;21485;-76
2021/11/07 05:45:51;;;;;;;24.30;4.40;;;9.10;99.90;;;;;;5057052;28;20044;-76
2021/11/07 05:48:18;;;;;;;19.15;4.18;;;9.10;99.90;;;;;;5054809;28;20395;-76
2021/11/07 05:50:44;;;;;;;18.88;3.25;;;9.10;99.90;;;;;;5056906;28;20041;-75
2021/11/07 05:53:10;;;;;;;26.90;3.97;;;9.10;99.90;;;;;;5050987;28;20119;-76
2021/11/07 05:55:36;;;;;;;21.58;3.63;;;9.10;99.90;;;;;;5053761;28;22118;-75
2021/11/07 05:58:03;;;;;;;27.38;3.92;;;9.10;99.90;;;;;;5056245;28;20040;-75
2021/11/07 06:00:29;;;;;;;18.85;4.05;;;9.20;99.90;;;;;;5055057;28;20056;-76
2021/11/07 06:02:55;;;;;;;26.20;3.97;;;9.20;99.90;;;;;;5058546;28;20041;-75
2021/11/07 06:05:21;;;;;;;17.77;4.22;;;9.30;99.90;;;;;;5058697;28;20048;-76
2021/11/07 06:07:47;;;;;;;20.42;3.10;;;9.30;99.90;;;;;;5058918;28;20105;-76
2021/11/07 06:10:14;;;;;;;21.38;4.13;;;9.30;99.90;;;;;;5092002;27;20041;-75
2021/11/07 06:12:40;;;;;;;14.00;2.88;;;9.40;99.90;;;;;;5057555;28;20052;-76
2021/11/07 06:15:06;;;;;;;15.05;3.17;;;9.40;99.90;;;;;;5060253;28;20091;-76
2021/11/07 06:17:33;;;;;;;14.63;3.25;;;9.40;99.90;;;;;;5058658;28;20375;-76
2021/11/07 06:19:58;;;;;;;12.75;2.28;;;9.40;99.90;;;;;;5059985;28;20040;-75
2021/11/07 06:22:24;;;;;;;15.45;2.10;;;9.40;99.90;;;;;;5058081;28;20051;-76
2021/11/07 06:24:51;;;;;;;12.75;1.92;;;9.40;99.90;;;;;;5059678;28;20040;-75
2021/11/07 06:27:17;;;;;;;11.57;2.33;;;9.30;99.90;;;;;;5061228;28;20044;-75
2021/11/07 06:29:43;;;;;;;13.23;2.08;;;9.20;99.90;;;;;;5058335;28;20051;-75
2021/11/07 06:32:09;;;;;;;13.18;2.58;;;9.20;99.90;;;;;;5056610;28;20140;-76
2021/11/07 06:34:37;;;;;;;12.32;2.33;;;9.20;99.90;;;;;;5058045;28;20028;-75
2021/11/07 06:37:05;;;;;;;14.73;1.75;;;9.20;99.90;;;;;;5089935;27;20051;-75
2021/11/07 06:39:32;;;;;;;17.60;3.15;;;9.20;99.90;;;;;;5088907;28;20131;-75
2021/11/07 06:41:58;;;;;;;13.85;2.83;;;9.10;99.90;;;;;;5062816;28;20044;-75
2021/11/07 06:44:24;;;;;;;16.65;2.50;;;9.10;99.90;;;;;;5057287;28;20189;-75
2021/11/07 06:46:50;;;;;;;16.42;2.25;;;9.00;99.90;;;;;;5060293;28;20045;-75
2021/11/07 06:49:16;;;;;;;13.30;2.22;;;9.10;99.90;;;;;;5059191;28;20391;-75
2021/11/07 06:51:43;;;;;;;12.98;2.47;;;9.00;99.90;;;;;;5060898;28;20090;-75
2021/11/07 06:54:09;;;;;;;26.70;2.58;;;9.00;99.90;;;;;;5057246;28;20041;-75
2021/11/07 06:56:36;;;;;;;17.52;2.92;;;9.00;99.90;;;;;;5041870;28;20162;-75
2021/11/07 06:59:02;;;;;;;21.10;3.30;;;9.00;99.90;;;;;;5061776;28;20071;-75
2021/11/07 07:01:28;;;;;;;15.80;2.90;;;9.00;99.90;;;;;;5059309;28;20129;-75
2021/11/07 07:03:54;;;;;;;21.33;3.33;;;9.00;99.90;;;;;;5057027;28;20032;-75
2021/11/07 07:06:20;;;;;;;17.23;2.67;;;8.90;99.90;;;;;;5059013;28;20122;-75
2021/11/07 07:11:25;;;;;;;16.58;4.28;;;9.00;99.90;;;;;;5056922;28;22984;-76
2021/11/07 07:14:03;;;;;;;18.65;3.10;;;9.00;99.90;;;;;;5055798;28;20052;-76
2021/11/07 07:16:58;;;;;;;18.58;3.80;;;9.00;99.90;;;;;;5058962;28;20382;-76
2021/11/07 07:25:06;;;;;;;16.23;2.97;;;9.00;99.90;;;;;;5056006;28;20040;-76
2021/11/07 07:35:36;;;;;;;13.20;2.30;;;8.90;99.90;;;;;;5088890;27;20057;-76
2021/11/07 07:38:02;;;;;;;18.52;2.65;;;8.80;99.90;;;;;;5058623;28;20044;-76
2021/11/07 07:40:27;;;;;;;12.98;2.30;;;8.80;99.90;;;;;;5056538;28;20051;-76
2021/11/07 07:42:53;;;;;;;14.55;2.60;;;8.80;99.90;;;;;;5054169;28;20047;-76
2021/11/07 07:45:18;;;;;;;16.00;3.08;;;8.80;99.90;;;;;;5058758;28;20045;-76
2021/11/07 07:47:44;;;;;;;15.43;3.35;;;8.80;99.90;;;;;;5057913;28;20041;-75
2021/11/07 07:50:12;;;;;;;12.35;1.95;;;8.90;99.90;;;;;;5058108;28;20043;-76
2021/11/07 07:52:39;;;;;;;16.95;2.53;;;8.90;99.90;;;;;;5057291;28;20099;-75
2021/11/07 07:55:09;;;;;;;15.02;2.30;;;8.90;99.90;;;;;;5059640;28;20051;-75
2021/11/07 07:57:36;;;;;;;10.57;2.13;;;8.90;99.90;;;;;;5086218;27;20499;-75
2021/11/07 08:00:08;;;;;;;16.38;2.40;;;8.90;99.90;;;;;;5056819;28;20046;-75
2021/11/07 08:02:33;;;;;;;16.80;2.78;;;8.90;99.90;;;;;;5055932;28;20041;-75
2021/11/07 08:04:59;;;;;;;14.05;2.83;;;8.90;99.90;;;;;;5087814;27;20048;-75
2021/11/07 08:07:26;;;;;;;17.85;2.45;;;8.90;99.90;;;;;;5056813;28;20232;-76
2021/11/07 08:09:54;;;;;;;16.17;2.40;;;8.90;99.90;;;;;;5057326;28;20040;-76
2021/11/07 08:12:20;;;;;;;21.33;2.83;;;8.90;99.90;;;;;;5054769;28;20055;-75
2021/11/07 08:14:47;;;;;;;17.10;1.95;;;8.90;99.90;;;;;;5055156;28;20488;-75
2021/11/07 08:17:13;;;;;;;22.02;3.95;;;9.00;99.90;;;;;;5056679;28;20029;-75
2021/11/07 08:19:40;;;;;;;14.38;2.53;;;9.00;99.90;;;;;;5057732;28;20040;-73
2021/11/07 08:22:07;;;;;;;15.70;2.63;;;9.10;99.90;;;;;;5059826;28;20051;-76
2021/11/07 08:24:35;;;;;;;17.90;3.10;;;9.20;99.90;;;;;;5055876;28;20044;-76
2021/11/07 08:27:01;;;;;;;14.38;2.20;;;9.20;99.90;;;;;;5053954;28;20051;-76
2021/11/07 08:29:27;;;;;;;16.45;2.15;;;9.40;99.90;;;;;;5055673;28;20044;-75
2021/11/07 08:31:53;;;;;;;21.75;3.47;;;9.50;99.90;;;;;;5055275;28;20040;-75
2021/11/07 08:34:24;;;;;;;18.77;3.05;;;9.60;99.90;;;;;;5052267;28;20125;-75
2021/11/07 08:37:04;;;;;;;24.70;4.70;;;9.70;99.90;;;;;;5053612;28;20104;-75
2021/11/07 08:42:03;;;;;;;25.55;3.90;;;9.70;99.90;;;;;;5059894;28;20160;-75
2021/11/07 09:01:13;;;;;;;24.77;4.15;;;9.90;99.90;;;;;;5060658;28;20048;-71
2021/11/07 09:03:44;;;;;;;20.02;3.70;;;9.90;99.90;;;;;;5056694;28;20111;-76
2021/11/07 09:08:50;;;;;;;20.70;2.78;;;9.90;99.90;;;;;;5061610;28;20044;-76
2021/11/07 09:11:17;;;;;;;15.50;2.65;;;10.00;99.90;;;;;;5057351;28;20437;-76
2021/11/07 09:13:43;;;;;;;18.17;2.78;;;10.10;99.90;;;;;;5060453;28;20462;-76
2021/11/07 09:16:11;;;;;;;16.70;2.70;;;10.10;99.90;;;;;;5062592;28;20036;-77
2021/11/07 09:18:38;;;;;;;15.48;2.28;;;10.10;99.90;;;;;;5057538;28;20499;-77
2021/11/07 09:21:10;;;;;;;12.75;1.90;;;10.20;99.90;;;;;;5058065;28;20040;-78
2021/11/07 09:23:50;;;;;;;16.08;2.97;;;10.20;99.90;;;;;;5059331;28;20053;-74
2021/11/07 09:26:26;;;;;;;12.02;1.90;;;10.30;99.90;;;;;;5057993;28;20059;-74
2021/11/07 09:29:01;;;;;;;9.50;1.90;;;10.30;99.90;;;;;;5058365;28;20060;-75
2021/11/07 09:36:41;;;;;;;12.32;2.38;;;10.40;99.90;;;;;;5093221;28;20428;-77
2021/11/07 09:44:21;;;;;;;14.10;2.13;;;10.50;99.90;;;;;;5054579;28;20148;-81
2021/11/07 09:46:54;;;;;;;13.45;2.22;;;10.50;99.90;;;;;;5060155;28;20048;-80
2021/11/07 09:49:30;;;;;;;16.65;2.65;;;10.60;99.90;;;;;;5060889;28;20052;-81
2021/11/07 09:52:07;;;;;;;13.68;2.72;;;10.60;99.90;;;;;;5062351;28;20374;-79
2021/11/07 09:54:33;;;;;;;20.83;3.97;;;10.80;99.90;;;;;;5057330;28;20040;-84
2021/11/07 09:57:00;;;;;;;20.10;3.67;;;11.00;99.90;;;;;;5066335;28;20481;-85
2021/11/07 09:59:28;;;;;;;21.08;3.42;;;11.00;99.90;;;;;;5062864;28;20048;-76
2021/11/07 10:01:58;;;;;;;18.38;4.03;;;11.20;99.90;;;;;;5059937;28;20387;-74
2021/11/07 10:04:25;;;;;;;17.63;3.17;;;11.20;99.90;;;;;;5060055;28;20029;-74
2021/11/07 10:06:56;;;;;;;19.02;3.50;;;11.30;99.90;;;;;;5059317;28;20044;-74
2021/11/07 10:09:38;;;;;;;17.40;3.20;;;11.40;99.90;;;;;;5061278;28;20048;-74
2021/11/07 10:12:06;;;;;;;23.58;3.70;;;11.50;99.90;;;;;;5093045;28;20040;-74
2021/11/07 10:14:40;;;;;;;17.33;3.63;;;11.70;99.90;;;;;;5059477;28;20119;-74
2021/11/07 10:17:23;;;;;;;16.60;3.22;;;11.80;99.90;;;;;;5062031;28;20126;-74
2021/11/07 10:20:27;;;;;;;19.60;3.83;;;11.80;99.90;;;;;;5065627;28;20104;-78
2021/11/07 10:23:01;;;;;;;15.30;3.20;;;11.80;99.90;;;;;;5057467;28;20045;-78
2021/11/07 10:25:36;;;;;;;22.00;3.10;;;11.60;99.90;;;;;;5058246;28;20099;-78
2021/11/07 10:28:11;;;;;;;20.13;2.80;;;11.60;99.90;;;;;;5063416;28;20071;-77
2021/11/07 10:30:43;;;;;;;21.38;3.10;;;11.50;99.90;;;;;;5060285;28;20045;-78
2021/11/07 10:33:34;;;;;;;18.42;3.17;;;11.40;99.90;;;;;;5056063;28;20163;-78
2021/11/07 10:39:05;;;;;;;25.85;2.70;;;11.30;99.90;;;;;;5060956;28;20106;-74
2021/11/07 10:47:25;;;;;;;11.57;2.25;;;11.20;99.90;;;;;;5060661;28;20045;-74
2021/11/07 10:52:39;;;;;;;12.82;2.05;;;11.70;99.90;;;;;;5061894;28;20127;-74
2021/11/07 10:55:07;;;;;;;15.65;3.08;;;11.70;99.90;;;;;;5065104;28;20040;-73
2021/11/07 10:57:33;;;;;;;12.13;2.20;;;11.80;99.90;;;;;;5066935;28;20071;-74
2021/11/07 11:00:19;;;;;;;17.40;2.92;;;12.00;99.90;;;;;;5062129;28;20036;-74
2021/11/07 11:02:55;;;;;;;15.30;2.10;;;12.10;99.90;;;;;;5063183;28;20068;-74
2021/11/07 11:05:26;;;;;;;11.55;2.60;;;12.40;99.90;;;;;;5064698;28;20421;-74
2021/11/07 11:08:04;;;;;;;13.68;2.85;;;12.70;99.90;;;;;;5064932;28;20414;-73
2021/11/07 11:13:30;;;;;;;13.13;2.75;;;12.90;99.90;;;;;;5091132;27;20057;-74
2021/11/07 11:29:51;;;;;;;17.45;2.90;;;11.90;99.90;;;;;;5065173;28;20051;-76
2021/11/07 11:35:01;;;;;;;14.80;2.42;;;11.70;99.90;;;;;;5062303;28;20055;-76
2021/11/07 11:40:15;;;;;;;12.05;2.45;;;11.90;99.90;;;;;;5065209;28;20057;-77
2021/11/07 11:45:10;;;;;;;17.27;2.03;;;12.10;99.90;;;;;;5061373;28;20063;-77
2021/11/07 11:48:07;;;;;;;12.90;2.55;;;12.10;99.90;;;;;;5059578;28;20068;-77
2021/11/07 11:50:53;;;;;;;13.80;2.83;;;12.00;99.90;;;;;;5060648;28;20990;-77
2021/11/07 11:56:09;;;;;;;17.67;3.35;;;12.10;99.90;;;;;;5053795;28;20036;-77
2021/11/07 11:59:03;;;;;;;15.20;2.63;;;12.10;99.90;;;;;;5063136;28;20048;-77
2021/11/07 12:01:33;;;;;;;17.17;3.15;;;12.00;99.90;;;;;;5059979;28;20056;-77
2021/11/07 12:07:22;;;;;;;16.00;2.92;;;12.00;99.90;;;;;;5050039;28;20557;-78
2021/11/07 12:10:00;;;;;;;14.27;2.90;;;11.80;99.90;;;;;;5064086;28;20095;-78
2021/11/07 12:12:56;;;;;;;18.55;3.22;;;11.60;99.90;;;;;;5060881;28;20058;-77
2021/11/07 12:18:05;;;;;;;19.08;3.40;;;10.90;99.90;;;;;;5059466;28;20052;-77
2021/11/07 12:20:34;;;;;;;17.02;3.40;;;10.80;99.90;;;;;;5057569;28;20668;-77
2021/11/07 12:23:34;;;;;;;17.77;2.80;;;10.70;99.90;;;;;;5057166;28;20052;-77
2021/11/07 12:26:35;;;;;;;16.13;3.92;;;10.80;99.90;;;;;;5079441;27;20802;-77
2021/11/07 12:29:01;;;;;;;19.40;3.17;;;10.70;99.90;;;;;;5062523;28;20052;-77
2021/11/07 12:31:26;;;;;;;17.17;4.15;;;10.60;99.90;;;;;;5061722;28;20063;-77
2021/11/07 12:33:59;;;;;;;18.30;3.25;;;10.60;99.90;;;;;;5085859;27;20048;-77
2021/11/07 12:40:28;;;;;;;27.88;4.68;;;10.60;99.90;;;;;;5061125;28;20119;-77
2021/11/07 12:42:17;;;;;;;24.52;5.03;;;10.60;99.90;;;;;;5060016;28;20052;-77
2021/11/07 12:44:47;;;;;;;28.75;5.82;;;10.70;99.90;;;;;;5066941;28;20064;-77
2021/11/07 12:47:14;;;;;;;17.85;4.63;;;10.70;99.90;;;;;;5059208;28;20600;-76
2021/11/07 12:49:40;;;;;;;19.33;3.45;;;10.70;99.90;;;;;;5058995;28;20049;-77
2021/11/07 12:52:06;;;;;;;18.85;2.88;;;10.80;99.90;;;;;;5060049;28;20127;-77
2021/11/07 12:54:34;;;;;;;27.95;5.30;;;10.70;99.90;;;;;;5059687;28;20102;-77
2021/11/07 12:57:05;;;;;;;18.48;4.38;;;10.70;99.90;;;;;;5058087;28;20127;-77
2021/11/07 12:59:34;;;;;;;23.85;4.55;;;10.70;99.90;;;;;;5056957;28;20097;-77
2021/11/07 13:02:02;;;;;;;22.48;4.35;;;10.80;99.90;;;;;;5058815;28;20123;-77
2021/11/07 13:04:37;;;;;;;17.63;3.47;;;10.90;99.90;;;;;;5054947;28;21286;-76
2021/11/07 13:07:04;;;;;;;26.92;4.10;;;11.00;99.90;;;;;;5060648;28;20044;-76
2021/11/07 13:09:42;;;;;;;23.63;3.90;;;11.00;99.90;;;;;;5058526;28;20045;-77
2021/11/07 13:12:26;;;;;;;17.38;3.60;;;11.00;99.90;;;;;;5062458;28;20040;-76
2021/11/07 13:15:36;;;;;;;18.45;4.57;;;11.00;99.90;;;;;;5057262;28;20083;-76
2021/11/07 13:21:11;;;;;;;16.33;2.83;;;11.10;99.90;;;;;;5062278;28;20048;-76
2021/11/07 13:23:53;;;;;;;19.95;3.05;;;11.10;99.90;;;;;;5056648;28;20060;-76
2021/11/07 13:34:32;;;;;;;14.13;3.45;;;10.80;99.90;;;;;;5058123;28;20051;-76
2021/11/07 13:37:01;;;;;;;19.88;3.38;;;10.80;99.90;;;;;;5064498;28;20059;-76
2021/11/07 13:39:31;;;;;;;19.98;3.72;;;10.90;99.90;;;;;;5059876;28;20137;-76
2021/11/07 13:42:09;;;;;;;27.92;4.28;;;10.80;99.90;;;;;;5060506;28;20044;-76
2021/11/07 13:44:48;;;;;;;22.38;3.33;;;10.80;99.90;;;;;;5054807;28;20060;-76
2021/11/07 13:47:14;;;;;;;18.40;2.70;;;10.70;99.90;;;;;;5092149;28;20049;-76
2021/11/07 13:49:51;;;;;;;12.00;2.30;;;10.80;99.90;;;;;;5060226;28;20025;-76
2021/11/07 13:52:18;;;;;;;10.95;2.42;;;10.70;99.90;;;;;;5060730;28;20133;-76
2021/11/07 13:54:44;;;;;;;13.73;2.67;;;10.70;99.90;;;;;;5058352;28;20048;-76
2021/11/07 13:57:11;;;;;;;14.38;2.40;;;10.70;99.90;;;;;;5059589;28;20497;-72
2021/11/07 13:59:40;;;;;;;15.45;2.25;;;10.70;99.90;;;;;;5060954;28;20727;-72
2021/11/07 14:02:17;;;;;;;16.67;3.15;;;10.70;99.90;;;;;;5057304;28;20059;-72
2021/11/07 14:04:43;;;;;;;23.67;3.22;;;10.60;99.90;;;;;;5058297;28;20036;-72
2021/11/07 14:07:32;;;;;;;18.00;3.45;;;10.60;99.90;;;;;;5061310;28;20044;-72
2021/11/07 14:10:06;;;;;;;16.88;3.47;;;10.50;99.90;;;;;;5061890;28;20167;-71
2021/11/07 14:12:43;;;;;;;22.80;3.42;;;10.50;99.90;;;;;;5059385;28;20376;-72
2021/11/07 14:15:15;;;;;;;19.13;2.95;;;10.50;99.90;;;;;;5062725;28;20117;-72
2021/11/07 14:17:43;;;;;;;19.17;3.92;;;10.50;99.90;;;;;;5057989;28;20049;-72
2021/11/07 14:20:10;;;;;;;16.63;2.97;;;10.50;99.90;;;;;;5060484;28;20052;-72
2021/11/07 14:22:38;;;;;;;21.90;3.58;;;10.70;99.90;;;;;;5059819;28;20279;-72
2021/11/07 14:25:15;;;;;;;18.45;3.13;;;10.70;99.90;;;;;;5064403;28;20040;-72
2021/11/07 14:27:48;;;;;;;20.45;3.22;;;10.80;99.90;;;;;;5062117;28;20179;-72
2021/11/07 14:30:23;;;;;;;18.27;3.83;;;10.70;99.90;;;;;;5066404;28;20391;-72
2021/11/07 14:33:00;;;;;;;21.60;3.75;;;10.70;99.90;;;;;;5062219;28;20052;-72
2021/11/07 14:35:28;;;;;;;30.05;5.70;;;10.60;99.90;;;;;;5096111;27;20063;-72
2021/11/07 14:38:11;;;;;;;22.02;4.18;;;10.50;99.90;;;;;;5066091;28;20122;-72
2021/11/07 14:41:07;;;;;;;18.92;3.90;;;10.50;99.90;;;;;;5065801;28;20044;-73
2021/11/07 14:44:23;;;;;;;16.15;3.03;;;10.30;99.90;;;;;;5062432;28;20527;-72
2021/11/07 14:49:28;;;;;;;18.98;3.90;;;9.90;99.90;;;;;;5064099;28;20041;-72
2021/11/07 14:52:11;;;;;;;20.25;3.90;;;9.90;99.90;;;;;;5082032;28;20487;-72
2021/11/07 14:54:50;;;;;;;17.10;2.33;;;9.70;99.90;;;;;;5063146;28;20051;-72
2021/11/07 15:00:13;;;;;;;20.10;2.33;;;9.60;99.90;;;;;;5062388;28;20064;-72
2021/11/07 15:02:49;;;;;;;17.15;2.50;;;9.50;99.90;;;;;;5055224;28;20381;-72
2021/11/07 15:18:56;;;;;;;14.35;1.80;;;9.30;99.90;;;;;;5062758;28;20055;-72
2021/11/07 15:24:38;;;;;;;13.27;1.67;;;9.30;99.90;;;;;;5058727;28;20052;-73
2021/11/07 15:27:06;;;;;;;11.13;2.10;;;9.30;99.90;;;;;;5059596;28;20052;-72
2021/11/07 15:29:44;;;;;;;12.77;2.35;;;9.30;99.90;;;;;;5062044;28;20107;-72